Time;durP1;ratioP1;P1;durP2;ratioP2;P2;SDS_P1;SDS_P2;PMS_P1;PMS_P2;Temp;Humidity;BMP_temperature;BMP_pressure;BME280_temperature;BME280_humidity;BME280_pressure;Samples;Min_cycle;Max_cycle;Signal;HPM_P1;HPM_P2
2021/07/27 00:01:40;;;;;;;5.77;5.27;;;17.60;99.90;;;;;;5010412;28;20201;-71
2021/07/27 00:04:06;;;;;;;7.63;6.27;;;17.60;99.90;;;;;;5010173;28;20209;-73
2021/07/27 00:06:32;;;;;;;5.53;5.03;;;17.60;99.90;;;;;;5010331;28;20190;-72
2021/07/27 00:08:58;;;;;;;5.00;4.57;;;17.60;99.90;;;;;;5009877;28;20202;-73
2021/07/27 00:11:24;;;;;;;5.47;5.03;;;17.50;99.90;;;;;;5010878;28;20180;-72
2021/07/27 00:13:50;;;;;;;5.93;5.37;;;17.50;99.90;;;;;;5011671;28;20594;-73
2021/07/27 00:16:16;;;;;;;10.47;5.73;;;17.50;99.90;;;;;;5011712;28;20171;-71
2021/07/27 00:18:41;;;;;;;5.20;4.80;;;17.50;99.90;;;;;;5012713;28;20175;-72
2021/07/27 00:21:07;;;;;;;5.93;5.33;;;17.50;99.90;;;;;;5012778;28;20182;-71
2021/07/27 00:23:37;;;;;;;5.47;5.07;;;17.40;99.90;;;;;;5012684;28;20587;-72
2021/07/27 00:26:05;;;;;;;6.53;5.80;;;17.30;99.90;;;;;;5012720;28;20188;-71
2021/07/27 00:28:31;;;;;;;7.03;6.13;;;17.30;99.90;;;;;;5012978;28;20221;-72
2021/07/27 00:30:56;;;;;;;7.67;6.93;;;17.40;99.90;;;;;;4995282;28;20199;-72
2021/07/27 00:33:22;;;;;;;7.40;6.80;;;17.40;99.90;;;;;;5012742;28;20198;-72
2021/07/27 00:35:48;;;;;;;7.10;6.40;;;17.40;99.90;;;;;;5013000;28;20181;-70
2021/07/27 00:38:18;;;;;;;7.07;6.40;;;17.30;99.90;;;;;;5012625;28;20226;-72
2021/07/27 00:40:46;;;;;;;6.57;5.97;;;17.40;99.90;;;;;;5012729;28;20181;-72
2021/07/27 00:43:13;;;;;;;9.00;6.57;;;17.40;99.90;;;;;;5012778;28;20220;-72
2021/07/27 00:45:40;;;;;;;9.27;5.93;;;17.40;99.90;;;;;;5012628;28;20181;-72
2021/07/27 00:48:06;;;;;;;6.83;6.30;;;17.30;99.90;;;;;;5012537;28;20201;-72
2021/07/27 00:50:32;;;;;;;7.97;5.93;;;17.40;99.90;;;;;;5012529;28;20181;-72
2021/07/27 00:52:59;;;;;;;6.27;5.77;;;17.30;99.90;;;;;;4994716;28;20312;-72
2021/07/27 00:55:28;;;;;;;9.17;6.10;;;17.30;99.90;;;;;;5012702;28;20249;-71
2021/07/27 00:57:55;;;;;;;7.07;6.33;;;17.30;99.90;;;;;;4994935;28;20249;-72
2021/07/27 01:00:21;;;;;;;7.03;6.33;;;17.20;99.90;;;;;;4994921;28;20181;-72
2021/07/27 01:02:47;;;;;;;9.53;5.93;;;17.20;99.90;;;;;;5012413;28;20218;-72
2021/07/27 01:05:13;;;;;;;6.30;5.70;;;17.20;99.90;;;;;;5005036;28;20659;-72
2021/07/27 01:07:40;;;;;;;6.43;5.83;;;17.20;99.90;;;;;;5005512;28;20204;-72
2021/07/27 01:10:07;;;;;;;5.80;5.30;;;17.20;99.90;;;;;;5011817;28;20173;-71
2021/07/27 01:12:33;;;;;;;10.93;5.87;;;17.10;99.90;;;;;;5006334;28;20202;-72
2021/07/27 01:15:03;;;;;;;9.47;5.63;;;17.10;99.90;;;;;;5006231;28;20174;-72
2021/07/27 01:17:29;;;;;;;6.90;6.30;;;17.10;99.90;;;;;;5016268;28;20531;-71
2021/07/27 01:20:03;;;;;;;6.30;5.70;;;17.00;99.90;;;;;;5014786;28;20171;-72
2021/07/27 01:44:06;;;;;;;7.70;4.63;;;16.80;99.90;;;;;;5015700;28;20191;-71
2021/07/27 01:46:36;;;;;;;7.93;5.47;;;16.70;99.90;;;;;;5015352;28;20189;-72
2021/07/27 01:49:02;;;;;;;5.97;5.43;;;16.70;99.90;;;;;;5015214;28;20197;-71
2021/07/27 01:51:31;;;;;;;5.33;4.83;;;16.60;99.90;;;;;;5015312;28;20176;-72
2021/07/27 01:53:57;;;;;;;5.30;4.87;;;16.60;99.90;;;;;;5015118;28;20195;-72
2021/07/27 01:56:24;;;;;;;5.13;4.73;;;16.60;99.90;;;;;;4997822;28;20256;-72
2021/07/27 01:58:51;;;;;;;6.20;5.00;;;16.60;99.90;;;;;;5015161;28;20265;-72
2021/07/27 02:01:20;;;;;;;6.37;4.30;;;16.70;99.90;;;;;;5014693;28;20235;-71
2021/07/27 02:03:45;;;;;;;5.43;4.93;;;16.70;99.90;;;;;;5014811;28;20281;-72
2021/07/27 02:06:11;;;;;;;5.43;4.90;;;16.70;99.90;;;;;;5014619;28;20258;-71
2021/07/27 02:08:37;;;;;;;8.33;5.07;;;16.70;99.90;;;;;;5014980;28;20285;-72
2021/07/27 02:11:05;;;;;;;5.47;4.53;;;16.70;99.90;;;;;;4997272;28;20199;-71
2021/07/27 02:13:33;;;;;;;6.83;4.90;;;16.60;99.90;;;;;;5014923;28;20259;-72
2021/07/27 02:15:59;;;;;;;5.23;4.70;;;16.70;99.90;;;;;;5014742;28;20314;-72
2021/07/27 02:18:26;;;;;;;5.37;4.87;;;16.60;99.90;;;;;;5015000;28;20206;-72
2021/07/27 02:20:52;;;;;;;5.20;4.70;;;16.60;99.90;;;;;;5014610;28;20212;-72
2021/07/27 02:23:18;;;;;;;4.97;4.57;;;16.60;99.90;;;;;;5014512;28;20217;-72
2021/07/27 02:25:44;;;;;;;6.70;4.50;;;16.60;99.90;;;;;;4997549;28;20178;-71
2021/07/27 02:28:13;;;;;;;5.27;4.77;;;16.60;99.90;;;;;;5014215;28;20209;-72
2021/07/27 02:30:44;;;;;;;8.73;4.47;;;16.70;99.90;;;;;;5017496;28;20271;-72
2021/07/27 02:33:09;;;;;;;5.40;4.97;;;16.60;99.90;;;;;;4996249;28;20345;-72
2021/07/27 02:35:38;;;;;;;5.33;4.90;;;16.60;99.90;;;;;;5012344;28;20260;-72
2021/07/27 02:38:03;;;;;;;5.90;4.70;;;16.60;99.90;;;;;;5013744;28;20198;-72
2021/07/27 02:40:33;;;;;;;10.43;5.40;;;16.60;99.90;;;;;;5014440;28;20171;-72
2021/07/27 02:43:02;;;;;;;5.07;4.67;;;16.60;99.90;;;;;;5014183;28;20199;-72
2021/07/27 02:45:28;;;;;;;11.17;5.17;;;16.60;99.90;;;;;;5013356;28;20256;-72
2021/07/27 02:47:53;;;;;;;8.97;5.43;;;16.60;99.90;;;;;;5014101;28;20219;-71
2021/07/27 02:50:19;;;;;;;7.17;6.27;;;16.60;99.90;;;;;;4997034;28;20643;-72
2021/07/27 02:52:45;;;;;;;8.83;7.37;;;16.60;99.90;;;;;;5014185;28;20270;-72
2021/07/27 02:55:11;;;;;;;7.27;6.23;;;16.60;99.90;;;;;;5014024;28;20170;-72
2021/07/27 02:57:38;;;;;;;6.57;5.97;;;16.60;99.90;;;;;;5014127;28;20202;-72
2021/07/27 03:00:09;;;;;;;6.37;5.70;;;16.60;99.90;;;;;;5014068;28;20200;-71
2021/07/27 03:02:44;;;;;;;7.10;5.27;;;16.60;99.90;;;;;;5013941;28;20201;-72
2021/07/27 03:05:11;;;;;;;7.40;4.43;;;16.50;99.90;;;;;;5013884;28;20271;-72
2021/07/27 03:07:48;;;;;;;7.13;4.47;;;16.50;99.90;;;;;;4996097;28;20210;-72
2021/07/27 03:10:21;;;;;;;4.97;4.20;;;16.40;99.90;;;;;;5013869;28;20223;-71
2021/07/27 03:12:54;;;;;;;4.67;4.27;;;16.30;99.90;;;;;;4996408;28;20191;-71
2021/07/27 03:15:20;;;;;;;4.63;4.20;;;16.30;99.90;;;;;;4996300;28;20210;-72
2021/07/27 03:17:46;;;;;;;5.57;4.60;;;16.30;99.90;;;;;;5013664;28;20167;-72
2021/07/27 03:20:17;;;;;;;5.17;4.67;;;16.20;99.90;;;;;;5013687;28;20549;-72
2021/07/27 03:22:43;;;;;;;9.53;6.03;;;16.20;99.90;;;;;;5013460;28;20212;-71
2021/07/27 03:25:17;;;;;;;6.33;5.70;;;16.10;99.90;;;;;;5013612;28;20182;-71
2021/07/27 03:27:44;;;;;;;6.10;5.60;;;16.10;99.90;;;;;;4995800;28;20579;-72
2021/07/27 03:30:14;;;;;;;6.43;5.93;;;16.10;99.90;;;;;;5013517;28;20170;-71
2021/07/27 03:32:40;;;;;;;7.73;5.97;;;16.20;99.90;;;;;;5013308;28;20225;-72
2021/07/27 03:35:06;;;;;;;6.17;5.43;;;16.20;99.90;;;;;;5013439;28;20251;-71
2021/07/27 03:37:33;;;;;;;9.70;5.90;;;16.10;99.90;;;;;;5013617;28;20542;-72
2021/07/27 03:39:59;;;;;;;7.60;5.53;;;16.10;99.90;;;;;;5012977;28;20553;-71
2021/07/27 03:42:25;;;;;;;11.20;5.77;;;16.10;99.90;;;;;;4995626;28;20586;-71
2021/07/27 03:44:58;;;;;;;5.70;5.20;;;16.00;99.90;;;;;;5012076;28;20182;-72
2021/07/27 03:47:24;;;;;;;5.20;4.60;;;16.00;99.90;;;;;;5011207;28;20551;-73
2021/07/27 03:49:50;;;;;;;5.60;4.87;;;16.00;99.90;;;;;;5010512;28;20170;-72
2021/07/27 03:52:15;;;;;;;5.83;5.33;;;16.00;99.90;;;;;;5010887;28;20682;-72
2021/07/27 03:54:41;;;;;;;5.53;5.03;;;15.90;99.90;;;;;;5010503;28;20171;-72
2021/07/27 03:57:07;;;;;;;6.27;5.60;;;16.00;99.90;;;;;;5010912;28;20195;-72
2021/07/27 03:59:34;;;;;;;6.17;5.67;;;16.10;99.90;;;;;;4993278;28;20174;-73
2021/07/27 04:02:00;;;;;;;5.30;4.80;;;16.20;99.90;;;;;;5010656;28;20168;-71
2021/07/27 04:04:26;;;;;;;7.50;5.90;;;16.20;99.90;;;;;;5017171;28;20197;-72
2021/07/27 04:06:52;;;;;;;9.83;5.57;;;16.10;99.90;;;;;;5009213;28;20181;-72
2021/07/27 04:09:18;;;;;;;5.27;4.87;;;16.10;99.90;;;;;;4998777;28;20208;-72
2021/07/27 04:11:44;;;;;;;5.90;5.40;;;16.00;99.90;;;;;;5009525;28;20742;-72
2021/07/27 04:14:10;;;;;;;5.47;4.97;;;15.90;99.90;;;;;;5012496;28;20195;-72
2021/07/27 04:16:40;;;;;;;5.83;5.33;;;15.90;99.90;;;;;;5008201;28;20179;-74
2021/07/27 04:19:06;;;;;;;6.20;5.60;;;15.90;99.90;;;;;;5012696;28;20222;-71
2021/07/27 04:21:33;;;;;;;5.40;4.90;;;15.80;99.90;;;;;;5012675;28;20202;-72
2021/07/27 04:23:59;;;;;;;4.63;4.23;;;15.90;99.90;;;;;;5012653;28;20223;-71
2021/07/27 04:26:27;;;;;;;5.70;4.73;;;15.90;99.90;;;;;;5012248;28;20329;-71
2021/07/27 04:28:52;;;;;;;5.13;4.73;;;15.90;99.90;;;;;;5012792;28;20228;-70
2021/07/27 04:31:18;;;;;;;5.07;4.37;;;16.00;99.90;;;;;;5012779;28;20183;-71
2021/07/27 04:33:44;;;;;;;5.07;4.67;;;16.10;99.90;;;;;;5010222;28;20716;-74
2021/07/27 04:36:10;;;;;;;6.87;4.37;;;16.10;99.90;;;;;;5012642;28;20174;-72
2021/07/27 04:38:36;;;;;;;6.50;4.40;;;16.00;99.90;;;;;;4994118;28;20207;-70
2021/07/27 04:41:05;;;;;;;8.83;4.60;;;16.00;99.90;;;;;;4994985;28;20644;-73
2021/07/27 04:43:31;;;;;;;4.93;4.40;;;15.90;99.90;;;;;;5012356;28;20250;-73
2021/07/27 04:46:04;;;;;;;6.40;4.77;;;15.90;99.90;;;;;;5012585;28;20171;-73
2021/07/27 04:48:30;;;;;;;5.43;4.77;;;16.00;99.90;;;;;;5011503;28;20285;-71
2021/07/27 04:50:57;;;;;;;5.30;4.23;;;16.00;99.90;;;;;;5014111;28;20187;-71
2021/07/27 04:53:23;;;;;;;8.47;4.90;;;16.00;99.90;;;;;;5016220;28;20202;-74
2021/07/27 04:55:53;;;;;;;5.13;4.53;;;16.10;99.90;;;;;;5016403;28;20178;-70
2021/07/27 04:58:19;;;;;;;7.07;5.27;;;16.10;99.90;;;;;;5015306;28;20187;-71
2021/07/27 05:00:45;;;;;;;5.83;4.40;;;16.10;99.90;;;;;;5003882;28;20669;-71
2021/07/27 05:03:10;;;;;;;6.27;4.33;;;16.10;99.90;;;;;;5016217;28;20222;-71
2021/07/27 05:05:36;;;;;;;5.10;4.57;;;16.10;99.90;;;;;;5016016;28;20261;-70
2021/07/27 05:08:02;;;;;;;5.87;5.17;;;16.10;99.90;;;;;;5013700;28;20677;-71
2021/07/27 05:10:28;;;;;;;5.77;5.27;;;16.10;99.90;;;;;;5014784;28;20203;-71
2021/07/27 05:12:54;;;;;;;5.80;5.30;;;16.20;99.90;;;;;;5015304;28;20201;-73
2021/07/27 05:15:19;;;;;;;7.60;6.50;;;16.20;99.90;;;;;;5005396;28;20175;-72
2021/07/27 05:17:50;;;;;;;8.23;6.07;;;16.20;99.90;;;;;;5011701;28;20229;-72
2021/07/27 05:20:15;;;;;;;6.10;5.53;;;16.10;99.90;;;;;;5014640;28;20178;-71
2021/07/27 05:25:11;;;;;;;6.70;5.50;;;15.90;99.90;;;;;;5034386;28;20263;-76
2021/07/27 05:27:37;;;;;;;6.30;5.80;;;16.00;99.90;;;;;;5017513;28;20203;-75
2021/07/27 05:30:03;;;;;;;9.67;5.93;;;16.00;99.90;;;;;;5017449;28;20175;-76
2021/07/27 05:32:29;;;;;;;5.80;5.30;;;16.10;99.90;;;;;;5015383;28;20654;-77
2021/07/27 05:34:55;;;;;;;5.70;5.20;;;16.10;99.90;;;;;;4997643;28;20206;-76
2021/07/27 05:37:20;;;;;;;7.10;5.23;;;16.20;99.90;;;;;;4998482;28;20201;-76
2021/07/27 05:39:47;;;;;;;5.13;4.63;;;16.20;99.90;;;;;;5016041;28;20175;-76
2021/07/27 05:42:12;;;;;;;4.77;4.37;;;16.30;99.90;;;;;;5015891;28;20175;-77
2021/07/27 05:44:38;;;;;;;5.33;4.93;;;16.30;99.90;;;;;;5015724;28;20683;-77
2021/07/27 05:47:04;;;;;;;7.60;5.73;;;16.40;99.90;;;;;;4998654;28;20183;-77
2021/07/27 05:49:31;;;;;;;6.33;5.83;;;16.40;99.90;;;;;;5015510;28;20267;-77
2021/07/27 05:51:57;;;;;;;5.60;5.20;;;16.50;99.90;;;;;;5015691;28;20174;-77
2021/07/27 05:54:24;;;;;;;7.40;5.67;;;16.50;99.90;;;;;;4997798;28;20205;-77
2021/07/27 05:56:54;;;;;;;9.07;6.53;;;16.50;99.90;;;;;;4999099;28;20585;-77
2021/07/27 05:59:20;;;;;;;6.27;5.57;;;16.60;99.90;;;;;;5015375;28;20189;-76
2021/07/27 06:01:47;;;;;;;6.87;5.60;;;16.70;99.90;;;;;;5014908;28;20221;-77
2021/07/27 06:04:12;;;;;;;7.07;6.47;;;16.80;99.90;;;;;;4997670;28;20222;-77
2021/07/27 06:06:38;;;;;;;8.00;5.93;;;16.80;99.90;;;;;;4997700;28;20199;-77
2021/07/27 06:09:06;;;;;;;9.67;8.30;;;16.80;99.90;;;;;;5015659;28;20183;-77
2021/07/27 06:11:33;;;;;;;9.70;8.60;;;16.80;99.90;;;;;;4997408;28;20183;-77
2021/07/27 06:14:00;;;;;;;16.20;12.30;;;16.90;99.90;;;;;;5015196;28;20236;-77
2021/07/27 06:16:26;;;;;;;19.37;14.30;;;16.90;99.90;;;;;;4997400;28;20560;-77
2021/07/27 06:18:52;;;;;;;10.60;9.70;;;16.90;99.90;;;;;;5014952;28;20196;-77
2021/07/27 06:21:18;;;;;;;16.40;13.00;;;17.00;99.90;;;;;;4997770;28;20550;-77
2021/07/27 06:23:44;;;;;;;13.17;11.77;;;16.90;99.90;;;;;;5001770;28;20211;-77
2021/07/27 06:26:10;;;;;;;13.90;12.27;;;16.90;99.90;;;;;;5018672;28;20194;-78
2021/07/27 06:28:36;;;;;;;15.70;14.07;;;16.90;99.90;;;;;;5023477;28;20245;-78
2021/07/27 06:31:10;;;;;;;15.43;14.03;;;16.90;99.90;;;;;;5022621;28;20185;-78
2021/07/27 06:33:40;;;;;;;11.37;10.40;;;17.00;99.90;;;;;;5022502;28;20253;-78
2021/07/27 06:36:06;;;;;;;10.03;9.13;;;17.00;99.90;;;;;;5023003;28;20226;-79
2021/07/27 06:38:33;;;;;;;10.40;9.60;;;17.00;99.90;;;;;;5023138;28;20285;-78
2021/07/27 06:40:58;;;;;;;11.23;10.23;;;17.10;99.90;;;;;;5023963;28;20205;-78
2021/07/27 06:43:24;;;;;;;11.70;10.70;;;17.20;99.90;;;;;;5023317;28;20199;-79
2021/07/27 06:45:56;;;;;;;11.23;10.33;;;17.10;99.90;;;;;;5023373;28;20203;-78
2021/07/27 06:48:22;;;;;;;12.80;11.57;;;17.20;99.90;;;;;;5023840;28;20243;-79
2021/07/27 06:50:48;;;;;;;11.97;10.90;;;17.00;99.90;;;;;;5022254;28;20258;-78
2021/07/27 06:53:14;;;;;;;14.17;12.50;;;16.90;99.90;;;;;;5021876;28;20238;-79
2021/07/27 06:55:40;;;;;;;12.40;11.20;;;16.90;99.90;;;;;;5023739;28;20183;-79
2021/07/27 06:58:05;;;;;;;13.67;11.37;;;17.00;99.90;;;;;;5022420;28;20227;-79
2021/07/27 07:00:31;;;;;;;12.73;11.53;;;17.00;99.90;;;;;;5023698;28;20543;-79
2021/07/27 07:02:57;;;;;;;14.07;11.37;;;17.00;99.90;;;;;;5023413;28;20217;-79
2021/07/27 07:05:22;;;;;;;14.03;11.10;;;17.10;99.90;;;;;;5023922;28;20204;-79
2021/07/27 07:07:48;;;;;;;13.20;11.80;;;17.00;99.90;;;;;;5023978;28;20174;-79
2021/07/27 07:10:14;;;;;;;12.77;11.47;;;17.10;99.90;;;;;;5024459;28;20188;-78
2021/07/27 07:12:39;;;;;;;13.30;10.97;;;17.20;99.90;;;;;;5022931;28;20180;-79
2021/07/27 07:15:06;;;;;;;14.57;12.43;;;17.30;99.90;;;;;;5022081;28;20178;-78
2021/07/27 07:17:31;;;;;;;15.23;12.40;;;17.30;99.90;;;;;;5023254;28;20653;-78
2021/07/27 07:19:57;;;;;;;13.03;11.63;;;17.30;99.90;;;;;;5023074;28;20200;-79
2021/07/27 07:22:24;;;;;;;16.13;11.20;;;17.30;99.90;;;;;;5020204;28;20185;-78
2021/07/27 07:24:51;;;;;;;12.13;10.97;;;17.30;99.90;;;;;;5017785;28;20317;-78
2021/07/27 07:27:17;;;;;;;15.57;12.07;;;17.40;99.90;;;;;;5020142;28;20584;-78
2021/07/27 07:29:42;;;;;;;12.63;11.47;;;17.30;99.90;;;;;;5017890;28;20181;-78
2021/07/27 07:32:08;;;;;;;13.73;11.93;;;17.40;99.90;;;;;;5019623;28;20202;-78
2021/07/27 07:34:34;;;;;;;16.37;12.77;;;17.40;99.90;;;;;;5020266;28;20669;-78
2021/07/27 07:37:00;;;;;;;14.17;12.67;;;17.40;99.90;;;;;;5020175;28;20190;-78
2021/07/27 07:39:29;;;;;;;16.27;11.97;;;17.50;99.90;;;;;;5018980;28;20206;-78
2021/07/27 07:41:55;;;;;;;13.47;11.63;;;17.50;99.90;;;;;;5021098;28;20266;-78
2021/07/27 07:44:22;;;;;;;13.33;11.93;;;17.50;99.90;;;;;;5021813;28;20201;-78
2021/07/27 07:46:48;;;;;;;13.80;12.00;;;17.50;99.90;;;;;;5017985;28;20205;-78
2021/07/27 07:49:14;;;;;;;13.03;11.50;;;17.60;99.90;;;;;;5018844;28;20186;-78
2021/07/27 07:51:45;;;;;;;12.93;11.73;;;17.70;99.90;;;;;;5020850;28;20239;-78
2021/07/27 07:54:11;;;;;;;15.33;11.47;;;17.60;99.90;;;;;;5021310;28;20201;-78
2021/07/27 07:56:37;;;;;;;13.63;12.27;;;17.70;99.90;;;;;;5020896;28;20190;-78
2021/07/27 07:59:02;;;;;;;14.00;12.50;;;17.80;99.90;;;;;;5020659;28;20218;-78
2021/07/27 08:01:28;;;;;;;13.30;12.00;;;17.80;99.90;;;;;;5019890;28;20252;-78
2021/07/27 08:03:54;;;;;;;13.40;11.70;;;17.80;99.90;;;;;;5019219;28;20233;-78
2021/07/27 08:06:19;;;;;;;13.20;11.70;;;17.90;99.90;;;;;;5019708;28;20182;-78
2021/07/27 08:08:45;;;;;;;14.30;12.90;;;17.90;99.90;;;;;;5018927;28;20186;-78
2021/07/27 08:11:14;;;;;;;12.83;11.47;;;18.00;99.90;;;;;;5019096;28;20207;-78
2021/07/27 08:13:39;;;;;;;13.70;11.67;;;18.10;99.90;;;;;;5019586;28;20205;-78
2021/07/27 08:16:09;;;;;;;12.90;11.30;;;18.20;99.90;;;;;;5020247;28;20186;-78
2021/07/27 08:18:35;;;;;;;12.40;11.20;;;18.30;99.90;;;;;;5021207;28;20202;-78
2021/07/27 08:21:00;;;;;;;11.50;10.33;;;18.40;99.90;;;;;;5020681;28;20185;-78
2021/07/27 08:23:26;;;;;;;12.33;10.53;;;18.40;99.90;;;;;;5021731;28;20221;-79
2021/07/27 08:25:52;;;;;;;11.83;10.70;;;18.50;99.90;;;;;;5024094;28;20242;-79
2021/07/27 08:28:17;;;;;;;12.73;10.10;;;18.50;99.90;;;;;;5027098;28;20179;-79
2021/07/27 08:30:43;;;;;;;11.63;10.43;;;18.60;99.90;;;;;;5009799;28;20185;-79
2021/07/27 08:33:09;;;;;;;13.00;11.03;;;18.60;99.90;;;;;;5026904;28;20200;-78
2021/07/27 08:35:34;;;;;;;12.60;10.93;;;18.60;99.90;;;;;;5010708;28;20186;-78
2021/07/27 08:38:00;;;;;;;11.77;9.70;;;18.60;99.90;;;;;;5026937;28;20202;-78
2021/07/27 08:40:28;;;;;;;12.07;10.87;;;18.70;99.90;;;;;;5027586;28;20178;-79
2021/07/27 08:42:54;;;;;;;11.93;10.67;;;18.70;99.90;;;;;;5028038;28;20253;-79
2021/07/27 08:45:20;;;;;;;11.30;10.20;;;18.80;99.90;;;;;;5009800;28;20182;-78
2021/07/27 08:47:47;;;;;;;12.03;10.77;;;18.90;99.90;;;;;;5028643;28;20178;-79
2021/07/27 08:50:14;;;;;;;11.00;10.00;;;18.90;99.90;;;;;;5010604;28;20188;-79
2021/07/27 08:52:40;;;;;;;11.83;9.73;;;19.00;99.90;;;;;;5027437;28;20178;-78
2021/07/27 08:55:07;;;;;;;10.43;9.47;;;19.00;99.90;;;;;;5010117;28;20319;-78
2021/07/27 08:57:33;;;;;;;11.10;9.90;;;19.00;99.90;;;;;;5026774;28;20194;-78
2021/07/27 08:59:59;;;;;;;12.57;9.90;;;19.10;99.90;;;;;;5027125;28;20212;-78
2021/07/27 09:02:31;;;;;;;11.20;10.10;;;19.20;99.90;;;;;;5025948;28;20229;-79
2021/07/27 09:05:23;;;;;;;10.60;9.23;;;19.20;99.90;;;;;;5026835;28;20205;-79
2021/07/27 09:07:48;;;;;;;10.60;9.40;;;19.20;99.90;;;;;;5023424;28;20567;-78
2021/07/27 09:10:19;;;;;;;9.73;8.73;;;19.20;99.90;;;;;;5008622;28;20253;-79
2021/07/27 09:13:01;;;;;;;10.70;9.20;;;19.30;99.90;;;;;;5026365;28;20190;-79
2021/07/27 09:15:28;;;;;;;12.13;8.97;;;19.40;99.90;;;;;;5010148;28;20709;-79
2021/07/27 09:17:57;;;;;;;9.30;8.33;;;19.40;99.90;;;;;;5007861;28;20656;-78
2021/07/27 09:20:26;;;;;;;9.93;8.93;;;19.50;99.90;;;;;;5027052;28;20179;-79
2021/07/27 09:22:51;;;;;;;12.00;10.10;;;19.40;99.90;;;;;;5026095;28;20234;-78
2021/07/27 09:25:18;;;;;;;10.80;9.67;;;19.50;99.90;;;;;;5026772;28;20197;-78
2021/07/27 09:27:43;;;;;;;12.00;9.57;;;19.50;99.90;;;;;;5008375;28;20175;-78
2021/07/27 09:30:19;;;;;;;10.63;9.23;;;19.60;99.90;;;;;;5009074;28;20662;-79
2021/07/27 09:32:48;;;;;;;11.10;9.93;;;19.60;99.90;;;;;;5008614;28;20194;-79
2021/07/27 09:35:14;;;;;;;9.70;8.73;;;19.70;99.90;;;;;;5009614;28;20193;-79
2021/07/27 09:37:40;;;;;;;11.83;9.27;;;19.80;99.90;;;;;;5025913;28;20183;-79
2021/07/27 09:40:06;;;;;;;9.13;8.30;;;19.80;99.90;;;;;;5026815;28;20171;-79
2021/07/27 09:42:34;;;;;;;9.00;8.07;;;19.90;99.90;;;;;;5025847;28;20190;-78
2021/07/27 09:45:03;;;;;;;9.63;8.37;;;20.00;99.90;;;;;;5008417;28;20190;-79
2021/07/27 09:47:30;;;;;;;10.37;8.30;;;20.10;99.90;;;;;;5025989;28;20187;-78
2021/07/27 09:49:56;;;;;;;8.90;7.97;;;20.20;99.90;;;;;;5008652;28;20198;-79
2021/07/27 09:52:23;;;;;;;11.57;7.70;;;20.30;99.90;;;;;;5027023;28;20699;-79
2021/07/27 09:54:49;;;;;;;8.47;7.67;;;20.40;99.90;;;;;;5008687;28;20206;-78
2021/07/27 09:57:15;;;;;;;8.37;7.57;;;20.50;99.90;;;;;;5026145;28;20186;-78
2021/07/27 09:59:42;;;;;;;8.30;6.87;;;20.70;99.90;;;;;;5027139;28;20218;-79
2021/07/27 10:02:08;;;;;;;7.67;6.83;;;20.70;99.90;;;;;;5025504;28;20179;-79
2021/07/27 10:04:37;;;;;;;7.00;6.30;;;20.70;99.90;;;;;;5024505;28;20199;-78
2021/07/27 10:07:06;;;;;;;6.30;5.73;;;20.70;99.90;;;;;;5003780;28;20179;-76
2021/07/27 10:09:34;;;;;;;8.43;5.97;;;20.80;99.90;;;;;;5015567;28;20232;-77
2021/07/27 10:12:09;;;;;;;7.30;5.90;;;20.90;99.90;;;;;;5015946;28;20234;-76
2021/07/27 10:14:45;;;;;;;6.73;6.03;;;21.00;99.90;;;;;;4985138;28;20229;-76
2021/07/27 10:17:14;;;;;;;5.17;4.77;;;21.00;99.90;;;;;;5008234;28;20179;-79
2021/07/27 10:19:50;;;;;;;5.07;4.57;;;21.00;99.90;;;;;;5008471;28;20203;-79
2021/07/27 10:22:17;;;;;;;5.20;4.70;;;21.10;99.90;;;;;;5007535;28;20183;-78
2021/07/27 10:24:45;;;;;;;6.83;5.17;;;21.10;99.90;;;;;;5006883;28;20222;-79
2021/07/27 10:27:18;;;;;;;5.97;5.47;;;21.10;99.90;;;;;;5008468;28;20179;-79
2021/07/27 10:29:44;;;;;;;6.77;5.30;;;21.30;99.90;;;;;;5008602;28;20198;-79
2021/07/27 10:32:22;;;;;;;7.20;5.80;;;21.50;99.90;;;;;;5026553;28;20187;-79
2021/07/27 10:34:52;;;;;;;5.90;5.40;;;21.60;99.90;;;;;;5022717;28;20198;-77
2021/07/27 10:37:18;;;;;;;5.87;5.37;;;21.70;99.90;;;;;;5014964;28;20206;-77
2021/07/27 10:39:48;;;;;;;5.73;5.13;;;21.80;99.90;;;;;;4999281;28;20224;-79
2021/07/27 10:42:14;;;;;;;6.37;5.67;;;21.80;99.90;;;;;;5024614;28;20171;-79
2021/07/27 10:44:40;;;;;;;6.13;5.53;;;21.80;99.90;;;;;;5002426;28;20199;-77
2021/07/27 10:47:06;;;;;;;5.93;5.43;;;21.70;99.90;;;;;;4997087;28;20182;-77
2021/07/27 10:49:31;;;;;;;6.30;5.70;;;21.80;99.90;;;;;;5013741;28;20185;-76
2021/07/27 10:52:02;;;;;;;6.33;5.73;;;21.80;99.90;;;;;;4997062;28;20187;-76
2021/07/27 10:54:29;;;;;;;6.00;5.47;;;21.80;99.90;;;;;;4996914;28;20287;-77
2021/07/27 10:57:06;;;;;;;5.83;5.33;;;21.80;99.90;;;;;;4996646;28;20183;-77
2021/07/27 10:59:36;;;;;;;6.40;4.90;;;21.90;99.90;;;;;;4996965;28;20198;-77
2021/07/27 11:02:12;;;;;;;6.40;5.80;;;22.00;99.90;;;;;;5014419;28;20179;-77
2021/07/27 11:04:39;;;;;;;7.00;6.10;;;22.30;99.90;;;;;;5024620;28;20217;-79
2021/07/27 11:07:15;;;;;;;5.40;4.90;;;22.30;99.90;;;;;;5025311;28;20182;-78
2021/07/27 11:09:47;;;;;;;5.97;5.40;;;23.00;99.90;;;;;;5024370;28;20182;-79
2021/07/27 11:12:13;;;;;;;5.13;4.73;;;22.50;99.90;;;;;;5024840;28;20179;-79
2021/07/27 11:14:39;;;;;;;6.37;5.27;;;22.50;99.90;;;;;;5024923;28;20203;-79
2021/07/27 11:17:05;;;;;;;5.33;4.90;;;22.60;99.90;;;;;;5025019;28;20182;-79
2021/07/27 11:19:32;;;;;;;4.90;4.43;;;22.60;99.90;;;;;;5002717;28;20218;-77
2021/07/27 11:21:59;;;;;;;5.47;5.07;;;22.70;99.90;;;;;;5014767;28;20190;-79
2021/07/27 11:24:27;;;;;;;5.40;4.90;;;22.60;99.90;;;;;;5080663;23;20229;-80
2021/07/27 11:26:54;;;;;;;4.97;4.57;;;22.60;99.90;;;;;;5061813;28;20205;-78
2021/07/27 11:29:21;;;;;;;5.33;4.83;;;22.70;99.90;;;;;;5044082;28;20573;-81
2021/07/27 11:31:48;;;;;;;5.70;5.20;;;22.70;99.90;;;;;;5063097;28;20177;-79
2021/07/27 11:34:25;;;;;;;5.60;5.00;;;22.70;99.90;;;;;;5049286;28;20262;-80
2021/07/27 11:36:52;;;;;;;5.80;4.83;;;22.80;99.90;;;;;;5025622;28;20541;-80
2021/07/27 11:39:18;;;;;;;7.23;5.37;;;22.80;99.90;;;;;;5043483;28;20194;-81
2021/07/27 11:41:44;;;;;;;5.87;4.90;;;22.90;99.90;;;;;;5043379;28;20174;-80
2021/07/27 11:44:12;;;;;;;7.77;6.03;;;23.00;99.90;;;;;;5043591;28;20205;-80
2021/07/27 11:46:44;;;;;;;7.33;5.60;;;22.90;99.90;;;;;;5045272;28;20189;-80
2021/07/27 11:49:10;;;;;;;9.97;6.77;;;23.00;99.90;;;;;;5042158;28;20221;-80
2021/07/27 11:51:36;;;;;;;8.80;6.60;;;23.10;99.90;;;;;;5040781;28;20671;-80
2021/07/27 11:54:02;;;;;;;8.10;6.80;;;23.10;99.90;;;;;;5050667;28;20198;-80
2021/07/27 11:56:28;;;;;;;7.20;6.47;;;23.00;99.90;;;;;;5045909;28;20182;-79
2021/07/27 11:59:00;;;;;;;7.03;6.33;;;23.00;99.90;;;;;;5025846;28;20256;-80
2021/07/27 12:01:42;;;;;;;6.13;5.53;;;23.00;99.90;;;;;;5026743;28;20217;-80
2021/07/27 12:04:09;;;;;;;5.57;5.07;;;22.90;99.90;;;;;;5025359;28;20201;-79
2021/07/27 12:06:45;;;;;;;4.80;4.40;;;23.00;99.90;;;;;;5042559;28;20281;-78
2021/07/27 12:09:10;;;;;;;5.37;4.87;;;23.10;99.90;;;;;;5025596;28;20237;-80
2021/07/27 12:11:36;;;;;;;4.93;4.53;;;23.20;99.90;;;;;;5044612;28;20170;-80
2021/07/27 12:14:02;;;;;;;5.03;4.53;;;23.40;99.90;;;;;;5043980;28;20205;-80
2021/07/27 12:16:30;;;;;;;4.90;4.40;;;23.30;99.90;;;;;;5043418;28;20181;-80
2021/07/27 12:18:56;;;;;;;4.67;4.27;;;23.30;99.90;;;;;;5045090;28;20727;-81
2021/07/27 12:21:21;;;;;;;5.47;4.63;;;23.30;99.90;;;;;;5025355;28;20246;-80
2021/07/27 12:23:47;;;;;;;5.27;4.83;;;23.30;99.90;;;;;;5043805;28;20361;-78
2021/07/27 12:26:12;;;;;;;4.67;4.30;;;23.30;99.90;;;;;;5044308;28;20181;-80
2021/07/27 12:28:38;;;;;;;4.63;4.23;;;23.30;99.90;;;;;;5042468;28;20198;-80
2021/07/27 12:31:04;;;;;;;4.37;3.97;;;23.30;99.90;;;;;;5042181;28;20175;-79
2021/07/27 12:33:30;;;;;;;4.27;3.97;;;23.30;99.90;;;;;;5042537;28;20205;-79
2021/07/27 12:35:59;;;;;;;4.30;3.90;;;23.40;99.90;;;;;;5043121;28;20174;-80
2021/07/27 12:38:25;;;;;;;4.60;4.00;;;23.50;99.90;;;;;;5043995;28;20170;-79
2021/07/27 12:40:50;;;;;;;5.67;4.27;;;23.50;99.90;;;;;;5044384;28;20179;-80
2021/07/27 12:43:16;;;;;;;4.90;4.30;;;23.50;99.90;;;;;;5043637;28;20198;-79
2021/07/27 12:45:43;;;;;;;4.47;4.07;;;23.50;99.90;;;;;;5043294;28;20182;-79
2021/07/27 12:48:09;;;;;;;4.63;4.20;;;23.50;99.90;;;;;;5035730;28;20206;-78
2021/07/27 12:50:35;;;;;;;4.57;3.63;;;23.50;99.90;;;;;;5036477;28;20182;-79
2021/07/27 12:53:00;;;;;;;4.20;3.80;;;23.50;99.90;;;;;;5027594;28;20674;-81
2021/07/27 12:55:26;;;;;;;4.87;4.07;;;23.50;99.90;;;;;;5041106;28;20318;-79
2021/07/27 12:57:51;;;;;;;5.50;3.70;;;23.50;99.90;;;;;;5035138;28;20205;-80
2021/07/27 13:00:17;;;;;;;4.40;4.00;;;23.50;99.90;;;;;;5043585;28;20178;-80
2021/07/27 13:02:43;;;;;;;5.10;4.00;;;23.50;99.90;;;;;;5043457;28;20547;-80
2021/07/27 13:05:09;;;;;;;4.80;4.37;;;23.60;99.90;;;;;;5042713;28;20277;-79
2021/07/27 13:07:35;;;;;;;4.40;3.87;;;23.60;99.90;;;;;;5038545;28;20231;-81